M I D A S
Marine Information and Data Acquisition System
Tripno 1270 of the Zeeleeuw from 2007-05-09 11:15:16 to 2007-05-09 14:30:53
Back to CruiseResearch ActivitiesStationsMapUnderway DataData graphs

EquipmentUnitsComment
TimeDGPSUTC
LatitudeDGPSDM.mWGS84
LongitudeDGPSDM.mWGS84
TemperatureSBE03/SBE38deg celciusITS90
ConductivitySBE21S/mITS90
SalinitySBE21 Practical Salinity Units
ChlorophylAChelsea fluorimeterg/lCalibrated in Aceton
Missing or incorrect values are displayed as -999
Sea surface data collected by the RV Zeeleeuw from 2007-05-09 11:14:07 to 2007-05-09 14:40:04
Time Latitude Longitude Temperature Conductivity Salinity ChlorophylA
2007-05-09 11:15:12 51°13.605 2°56.075 20.0016 0.070543 0.358289 -2.871232
2007-05-09 11:16:12 51°13.627 2°55.995 19.152 0.070646 0.358596 -2.871232
2007-05-09 11:17:12 51°13.669 2°55.88 14.3319 3.743758 27.499557 -2.871232
2007-05-09 11:18:12 51°13.694 2°55.784 14.1468 3.61801 27.966703 -2.871232
2007-05-09 11:19:12 51°13.698 2°55.738 14.03 3.57575 27.751601 -2.871232
2007-05-09 11:20:12 51°13.716 2°55.746 14.0722 3.580412 27.853609 -2.871232
2007-05-09 11:21:11 51°13.772 2°55.7 14.1678 3.530489 27.418954 -2.871232
2007-05-09 11:22:12 51°13.869 2°55.615 14.0279 3.460586 26.774275 -2.871232
2007-05-09 11:23:12 51°13.997 2°55.526 13.9293 3.578653 27.927915 -2.871232
2007-05-09 11:24:12 51°14.134 2°55.426 13.8877 3.633969 28.452688 -2.871232
2007-05-09 11:25:12 51°14.268 2°55.273 13.9532 3.647436 28.580196 -2.871232
2007-05-09 11:26:12 51°14.381 2°55.037 13.8546 3.647228 28.537297 -2.871232
2007-05-09 11:27:12 51°14.486 2°54.745 13.7918 3.693644 29.043569 -2.871232
2007-05-09 11:28:12 51°14.597 2°54.437 13.6437 3.808249 30.138693 -2.871232
2007-05-09 11:29:12 51°14.679 2°54.098 13.6469 3.842451 30.504499 -2.871232
2007-05-09 11:30:12 51°14.72 2°53.742 13.6904 3.856235 30.608641 -2.871232
2007-05-09 11:31:12 51°14.732 2°53.376 13.5211 3.866497 30.725498 -2.871232
2007-05-09 11:32:12 51°14.749 2°53.014 13.4545 3.862767 30.794115 -2.871232
2007-05-09 11:33:12 51°14.765 2°52.648 13.4676 3.864426 30.862431 -2.871232
2007-05-09 11:34:12 51°14.776 2°52.276 13.5867 3.869816 30.89171 -2.871232
2007-05-09 11:35:12 51°14.791 2°51.901 13.6006 3.875515 30.840845 -2.871232
2007-05-09 11:36:12 51°14.807 2°51.524 13.5275 3.871473 30.807889 -2.871232
2007-05-09 11:37:11 51°14.822 2°51.153 13.4566 3.868883 30.863387 -2.871232
2007-05-09 11:38:12 51°14.839 2°50.77 13.375 3.870127 30.933203 -2.871232
2007-05-09 11:39:11 51°14.857 2°50.399 13.4814 3.869817 30.954872 -2.871232
2007-05-09 11:40:12 51°14.841 2°50.019 13.4806 3.870541 30.885984 -2.871232
2007-05-09 11:41:12 51°14.816 2°49.667 13.4837 3.874687 30.927828 -2.871232
2007-05-09 11:42:12 51°14.793 2°49.291 13.4597 3.875309 30.941243 -2.871232
2007-05-09 11:43:12 51°14.774 2°48.912 13.4594 3.874895 30.951912 -2.871232
2007-05-09 11:44:12 51°14.754 2°48.531 13.4507 3.878212 30.975656 -2.871232
2007-05-09 11:45:12 51°14.735 2°48.152 13.4516 3.882254 31.030313 -2.871232
2007-05-09 11:46:12 51°14.718 2°47.774 13.4254 3.888473 31.073396 -2.871232
2007-05-09 11:47:12 51°14.701 2°47.396 13.357 3.890547 31.144591 -2.871232
2007-05-09 11:48:12 51°14.683 2°47.018 13.4009 3.891273 31.172795 -2.871232
2007-05-09 11:49:12 51°14.665 2°46.64 13.3962 3.898321 31.195038 -2.871232
2007-05-09 11:50:12 51°14.647 2°46.266 13.3545 3.904437 31.2786 -2.871232
2007-05-09 11:51:12 51°14.63 2°45.904 13.1377 3.911798 31.420989 -2.871232
2007-05-09 11:52:12 51°14.615 2°45.543 13.0902 3.911904 31.5625 -2.871232
2007-05-09 11:53:12 51°14.576 2°45.174 13.1049 3.910453 31.575352 -2.871232
2007-05-09 11:54:12 51°14.527 2°44.808 13.09 3.90952 31.560302 -2.871232
2007-05-09 11:55:11 51°14.463 2°44.454 13.0793 3.90724 31.553114 -2.871232
2007-05-09 11:56:12 51°14.36 2°44.112 13.0634 3.904752 31.540357 -2.871232
2007-05-09 11:57:11 51°14.238 2°43.797 13.0429 3.902576 31.542238 -2.871232
2007-05-09 11:58:12 51°14.097 2°43.488 13.0489 3.902783 31.552253 -2.871232
2007-05-09 11:59:12 51°13.959 2°43.182 13.0629 3.903923 31.559555 -2.871232
2007-05-09 12:00:12 51°13.822 2°42.873 13.0465 3.9061 31.572481 -2.871232
2007-05-09 12:01:12 51°13.685 2°42.563 13.0504 3.907137 31.595166 -2.871232
2007-05-09 12:02:12 51°13.548 2°42.254 13.0513 3.912942 31.632592 -2.871232
2007-05-09 12:03:12 51°13.411 2°41.943 13.0429 3.915844 31.662445 -2.871232
2007-05-09 12:04:12 51°13.275 2°41.631 13.0639 3.919058 31.692877 -2.871232
2007-05-09 12:05:12 51°13.139 2°41.321 13.0866 3.925795 31.734206 -2.871232
2007-05-09 12:06:12 51°13.003 2°41.012 13.0651 3.932741 31.793027 -2.871232
2007-05-09 12:07:12 51°12.868 2°40.704 13.0562 3.936473 31.8371 -2.871232
2007-05-09 12:08:12 51°12.735 2°40.395 13.0434 3.938443 31.864573 -2.871232
2007-05-09 12:09:11 51°12.602 2°40.095 13.0399 3.938443 31.877299 -2.871232
2007-05-09 12:10:11 51°12.469 2°39.786 13.0444 3.939376 31.886462 -2.871232
2007-05-09 12:11:11 51°12.334 2°39.477 13.0385 3.940309 31.888134 -2.871232
2007-05-09 12:12:11 51°12.2 2°39.168 13.0197 3.938028 31.884046 -2.871232
2007-05-09 12:13:11 51°12.065 2°38.859 13.0056 3.93751 31.897362 -2.871232
2007-05-09 12:14:11 51°11.929 2°38.55 13.014 3.938547 31.90822 -2.871232
2007-05-09 12:15:11 51°11.795 2°38.239 13.0021 3.941035 31.928426 -2.871232
2007-05-09 12:16:11 51°11.66 2°37.93 12.9663 3.941761 31.949252 -2.871232
2007-05-09 12:17:11 51°11.516 2°37.632 12.9507 3.940828 31.966397 -2.871232
2007-05-09 12:18:11 51°11.359 2°37.349 12.9522 3.940932 31.981643 -2.871232
2007-05-09 12:19:11 51°11.182 2°37.1 12.9314 3.941347 31.985392 -2.871232
2007-05-09 12:20:11 51°10.989 2°36.889 12.961 3.938341 31.971767 -2.871232
2007-05-09 12:21:11 51°10.79 2°36.689 13.0193 3.947048 32.008302 -2.871232
2007-05-09 12:22:11 51°10.577 2°36.552 13.0352 3.954097 32.038833 -2.871232
2007-05-09 12:23:11 51°10.349 2°36.521 13.0742 3.957518 32.050135 -2.871232
2007-05-09 12:24:11 51°10.116 2°36.509 13.0961 3.959591 32.040994 -2.871232
2007-05-09 12:25:11 51°9.888 2°36.509 13.2006 3.95337 31.954157 -2.871232
2007-05-09 12:26:11 51°9.662 2°36.531 13.1551 3.940307 31.764303 -2.871232
2007-05-09 12:27:11 51°9.436 2°36.551 13.1333 3.938234 31.784342 -2.871232
2007-05-09 12:28:11 51°9.216 2°36.585 13.1424 3.935228 31.774428 -2.871232
2007-05-09 12:29:11 51°9.098 2°36.675 13.1558 3.930667 31.716308 -2.871232
2007-05-09 12:30:11 51°9.093 2°36.771 13.1739 3.926624 31.677003 -2.871232
2007-05-09 12:31:11 51°9.121 2°36.904 13.1762 3.929526 31.683799 -2.871232
2007-05-09 12:32:11 51°9.142 2°37.059 13.1744 3.930251 31.688834 -2.871232
2007-05-09 12:33:11 51°9.151 2°37.17 13.1719 3.930252 31.690317 -2.871232
2007-05-09 12:34:11 51°9.148 2°37.188 13.1739 3.930148 31.690127 -2.871232
2007-05-09 12:35:11 51°9.144 2°37.199 13.177 3.930044 31.689938 -2.871232
2007-05-09 12:36:11 51°9.141 2°37.209 13.1829 3.930459 31.689213 -2.871232
2007-05-09 12:37:11 51°9.139 2°37.216 13.1787 3.930562 31.686437 -2.871232
2007-05-09 12:38:12 51°9.139 2°37.221 13.1835 3.930562 31.688661 -2.871232
2007-05-09 12:39:11 51°9.139 2°37.224 13.1845 3.930459 31.686989 -2.871232
2007-05-09 12:40:11 51°9.138 2°37.224 13.1818 3.930251 31.685127 -2.871232
2007-05-09 12:41:11 51°9.139 2°37.225 13.1813 3.930251 31.684385 -2.871232
2007-05-09 12:42:11 51°9.15 2°37.257 13.1795 3.930044 31.681041 -2.871232
2007-05-09 12:43:11 51°9.129 2°37.316 13.1729 3.928489 31.677453 -2.871232
2007-05-09 12:44:11 51°9.069 2°37.323 13.1758 3.928489 31.671524 -2.871232
2007-05-09 12:45:11 51°9.011 2°37.271 13.1836 3.929837 31.683627 -2.871232
2007-05-09 12:46:11 51°8.982 2°37.193 13.1857 3.932636 31.704315 -2.871232
2007-05-09 12:47:11 51°8.97 2°37.108 13.1866 3.934087 31.715865 -2.871232
2007-05-09 12:48:11 51°8.971 2°37.025 13.1867 3.934916 31.723314 -2.871232
2007-05-09 12:49:11 51°8.963 2°36.945 13.1914 3.93502 31.725729 -2.871232
2007-05-09 12:50:11 51°8.94 2°36.866 13.1918 3.93502 31.719792 -2.871232
2007-05-09 12:51:11 51°8.917 2°36.784 13.1879 3.934709 31.719225 -2.871232
2007-05-09 12:52:11 51°8.896 2°36.698 13.1842 3.934502 31.720332 -2.871232
2007-05-09 12:53:11 51°8.874 2°36.612 13.1857 3.934605 31.720521 -2.871232
2007-05-09 12:54:11 51°8.853 2°36.526 13.1856 3.934605 31.722747 -2.871232
2007-05-09 12:55:11 51°8.843 2°36.437 13.1885 3.934605 31.722005 -2.871232
2007-05-09 12:56:11 51°8.841 2°36.347 13.1853 3.934813 31.722383 -2.871232
2007-05-09 12:57:11 51°8.841 2°36.258 13.1923 3.934813 31.722383 -2.871232
2007-05-09 12:58:11 51°8.836 2°36.169 13.1901 3.934813 31.719414 -2.871232
2007-05-09 12:59:11 51°8.823 2°36.081 13.1933 3.934605 31.716811 -2.871232
2007-05-09 13:00:11 51°8.803 2°35.995 13.1903 3.933569 31.70676 -2.871232
2007-05-09 13:01:11 51°8.781 2°35.911 13.1879 3.933776 31.710105 -2.871232
2007-05-09 13:02:11 51°8.76 2°35.826 13.1867 3.933465 31.710279 -2.871232
2007-05-09 13:03:11 51°8.742 2°35.741 13.1837 3.933361 31.709348 -2.871232
2007-05-09 13:04:11 51°8.724 2°35.655 13.1832 3.933258 31.711385 -2.871232
2007-05-09 13:05:11 51°8.702 2°35.571 13.1832 3.933154 31.710454 -2.871232
2007-05-09 13:06:11 51°8.673 2°35.491 13.1875 3.933154 31.710454 -2.871232
2007-05-09 13:07:11 51°8.637 2°35.419 13.1871 3.933569 31.713436 -2.871232
2007-05-09 13:08:11 51°8.597 2°35.356 13.1885 3.93388 31.713261 -2.871232
2007-05-09 13:09:11 51°8.56 2°35.291 13.1888 3.934502 31.71959 -2.871232
2007-05-09 13:10:11 51°8.532 2°35.219 13.1933 3.935435 31.725742 -2.871232
2007-05-09 13:11:11 51°8.517 2°35.142 13.1963 3.936367 31.73041 -2.871232
2007-05-09 13:12:11 51°8.499 2°35.064 13.1935 3.9373 31.738789 -2.871232
2007-05-09 13:13:11 51°8.484 2°34.987 13.1918 3.937611 31.740839 -2.871232
2007-05-09 13:14:11 51°8.488 2°34.91 13.1975 3.937922 31.745117 -2.871232
2007-05-09 13:15:11 51°8.505 2°34.842 13.192 3.937508 31.740651 -2.871232
2007-05-09 13:16:11 51°8.527 2°34.779 13.1909 3.937404 31.744175 -2.871232
2007-05-09 13:17:11 51°8.558 2°34.752 13.1823 3.936886 31.740262 -2.871232
2007-05-09 13:18:11 51°8.582 2°34.76 13.1897 3.935642 31.734286 -2.871232
2007-05-09 13:19:11 51°8.608 2°34.771 13.1972 3.933672 31.703241 -2.871232
2007-05-09 13:20:11 51°8.686 2°34.858 13.1694 3.932324 31.688178 -2.871232
2007-05-09 13:21:11 51°8.859 2°34.96 13.1696 3.928697 31.673386 -2.871232
2007-05-09 13:22:11 51°9.056 2°35.07 13.1465 3.934398 31.723854 -2.871232
2007-05-09 13:23:11 51°9.253 2°35.186 13.1289 3.938649 31.792538 -2.871232
2007-05-09 13:24:11 51°9.448 2°35.304 13.1161 3.940204 31.816211 -2.871232
2007-05-09 13:25:11 51°9.643 2°35.426 13.1354 3.941552 31.828336 -2.871232
2007-05-09 13:26:11 51°9.84 2°35.55 13.2063 3.944039 31.830583 -2.871232
2007-05-09 13:27:11 51°10.035 2°35.68 13.1291 3.944038 31.762166 -2.871232
2007-05-09 13:28:11 51°10.226 2°35.812 13.0424 3.961249 32.031892 -2.871232
2007-05-09 13:29:11 51°10.414 2°35.951 12.9755 3.955963 32.031585 -2.871232
2007-05-09 13:30:11 51°10.572 2°36.163 12.918 3.944249 31.995812 -2.871232
2007-05-09 13:31:11 51°10.731 2°36.377 12.9274 3.938963 31.975886 -2.871232
2007-05-09 13:32:11 51°10.886 2°36.6 12.934 3.939066 31.970043 -2.871232
2007-05-09 13:33:11 51°11.019 2°36.857 12.9587 3.93917 31.963449 -2.871232
2007-05-09 13:34:11 51°11.152 2°37.112 12.9806 3.940724 31.953422 -2.871232
2007-05-09 13:35:11 51°11.285 2°37.368 12.9749 3.94062 31.941208 -2.871232
2007-05-09 13:36:11 51°11.404 2°37.643 12.9666 3.938236 31.926436 -2.871232
2007-05-09 13:37:11 51°11.511 2°37.932 12.971 3.936474 31.915025 -2.871232
2007-05-09 13:38:11 51°11.618 2°38.221 12.9709 3.935645 31.905281 -2.871232
2007-05-09 13:39:11 51°11.726 2°38.51 12.9978 3.935437 31.896652 -2.871232
2007-05-09 13:40:11 51°11.834 2°38.799 13.0162 3.936888 31.888749 -2.871232
2007-05-09 13:41:11 51°11.939 2°39.092 13.0252 3.938547 31.887973 -2.871232
2007-05-09 13:42:11 51°12.041 2°39.388 13.0305 3.939065 31.886654 -2.871232
2007-05-09 13:43:11 51°12.144 2°39.683 13.0421 3.938961 31.880475 -2.871232
2007-05-09 13:44:11 51°12.247 2°39.976 13.0411 3.936784 31.849622 -2.871232
2007-05-09 13:45:11 51°12.349 2°40.27 13.0275 3.931705 31.812806 -2.871232
2007-05-09 13:46:11 51°12.451 2°40.565 13.0134 3.92704 31.779717 -2.871232
2007-05-09 13:47:11 51°12.554 2°40.859 13.009 3.922583 31.752218 -2.871232
2007-05-09 13:48:11 51°12.657 2°41.154 13.025 3.919576 31.719148 -2.871232
2007-05-09 13:49:11 51°12.76 2°41.45 13.0278 3.917814 31.694325 -2.871232
2007-05-09 13:50:11 51°12.862 2°41.748 13.0529 3.915533 31.667824 -2.871232
2007-05-09 13:51:11 51°12.955 2°42.054 13.0712 3.915429 31.645336 -2.871232
2007-05-09 13:52:11 51°13.037 2°42.371 13.076 3.916466 31.64427 -2.871232
2007-05-09 13:53:11 51°13.131 2°42.679 13.0861 3.916258 31.636466 -2.871232
2007-05-09 13:54:11 51°13.227 2°42.989 13.0967 3.917295 31.636888 -2.871232
2007-05-09 13:55:11 51°13.324 2°43.297 13.0939 3.917087 31.629089 -2.871232
2007-05-09 13:56:11 51°13.42 2°43.604 13.1449 3.915222 31.616015 -2.871232
2007-05-09 13:57:11 51°13.515 2°43.911 13.1791 3.913251 31.551695 -2.871232
2007-05-09 13:58:11 51°13.611 2°44.22 13.1914 3.910555 31.48769 -2.871232
2007-05-09 13:59:11 51°13.708 2°44.524 13.1988 3.909726 31.472896 -2.871232
2007-05-09 14:00:11 51°13.806 2°44.826 13.2413 3.90786 31.45911 -2.871232
2007-05-09 14:01:11 51°13.902 2°45.128 13.2234 3.905372 31.409644 -2.871232
2007-05-09 14:02:11 51°13.999 2°45.428 13.2751 3.902055 31.363093 -2.871232
2007-05-09 14:03:11 51°14.096 2°45.731 13.2362 3.899671 31.335173 -2.871232
2007-05-09 14:04:11 51°14.172 2°46.049 13.2395 3.898012 31.344469 -2.871232
2007-05-09 14:05:11 51°14.202 2°46.386 13.2765 3.89511 31.31702 -2.871232
2007-05-09 14:06:11 51°14.234 2°46.723 13.2641 3.891481 31.237865 -2.871232
2007-05-09 14:07:11 51°14.255 2°47.06 13.3438 3.888579 31.198109 -2.871232
2007-05-09 14:08:11 51°14.277 2°47.4 13.4408 3.886298 31.147985 -2.871232
2007-05-09 14:09:11 51°14.3 2°47.738 13.5822 3.881528 30.978564 -2.871232
2007-05-09 14:10:11 51°14.327 2°48.074 13.5227 3.883186 30.935955 -2.871232
2007-05-09 14:11:11 51°14.354 2°48.41 13.5061 3.886296 31.043949 -2.871232
2007-05-09 14:12:11 51°14.38 2°48.746 13.3876 3.884327 31.017805 -2.871232
2007-05-09 14:13:11 51°14.407 2°49.083 13.5232 3.88184 31.012948 -2.871232
2007-05-09 14:14:11 51°14.435 2°49.42 13.5309 3.881216 30.938524 -2.871232
2007-05-09 14:15:11 51°14.462 2°49.758 13.5222 3.881839 30.955505 -2.871232
2007-05-09 14:16:11 51°14.49 2°50.098 13.5066 3.877693 30.920135 -2.871232
2007-05-09 14:17:11 51°14.519 2°50.439 13.538 3.872821 30.874756 -2.871232
2007-05-09 14:18:11 51°14.54 2°50.781 13.5529 3.871681 30.85107 -2.871232
2007-05-09 14:19:11 51°14.56 2°51.124 13.5316 3.871577 30.838021 -2.871232
2007-05-09 14:20:11 51°14.581 2°51.468 13.5288 3.867017 30.82183 -2.871232
2007-05-09 14:21:11 51°14.601 2°51.812 13.5768 3.866395 30.804192 -2.871232
2007-05-09 14:22:11 51°14.621 2°52.157 13.6603 3.868778 30.784022 -2.871232
2007-05-09 14:23:11 51°14.642 2°52.502 13.6917 3.287486 25.617408 -2.871232
2007-05-09 14:24:11 51°14.649 2°52.847 13.6955 3.868566 30.499036 -2.871232
2007-05-09 14:25:11 51°14.659 2°53.194 13.6883 3.892197 30.600088 -2.871232
2007-05-09 14:26:11 51°14.67 2°53.539 13.6895 3.908055 30.691353 -2.871232
2007-05-09 14:27:11 51°14.642 2°53.884 13.7904 3.895927 30.557546 -2.871232
2007-05-09 14:28:11 51°14.603 2°54.226 13.7854 3.486681 26.980286 -2.871232
2007-05-09 14:29:11 51°14.524 2°54.551 13.8117 3.864209 30.232057 -2.871232
2007-05-09 14:30:11 51°14.424 2°54.863 13.7768 3.902249 30.530192 -2.871232
2007-05-09 14:31:11 51°14.31 2°55.16 13.8817 3.840163 29.975944 -2.871232
2007-05-09 14:32:11 51°14.167 2°55.382 13.8931 3.903699 30.506884 -2.871232
2007-05-09 14:33:11 51°14.024 2°55.492 13.8858 3.908778 30.514469 -2.871232
2007-05-09 14:34:11 51°13.895 2°55.586 14.6157 0.039053 0.227304 -2.871232
2007-05-09 14:35:11 51°13.77 2°55.687 14.7387 0.030923 0.179275 -2.871232
2007-05-09 14:36:11 51°13.703 2°55.802 14.803 0.027527 0.159367 -2.871232
2007-05-09 14:37:11 51°13.662 2°55.894 14.8752 0.025263 0.146143 -2.871232
2007-05-09 14:38:11 51°13.629 2°55.972 14.8969 0.023822 0.137739 -2.871232
2007-05-09 14:39:11 51°13.615 2°56.043 15.0156 0.02269 0.131141 -2.871232